createdAt,value
2019-01-24T00:00:13.703Z,100.80
2019-01-24T00:02:44.620Z,100.00
2019-01-24T00:05:15.950Z,79.87
2019-01-24T00:07:47.157Z,90.27
2019-01-24T00:10:18.233Z,76.23
2019-01-24T00:12:49.216Z,80.23
2019-01-24T00:15:20.263Z,92.67
2019-01-24T00:17:51.228Z,82.30
2019-01-24T00:20:22.300Z,81.07
2019-01-24T00:22:53.315Z,94.33
2019-01-24T00:25:24.379Z,73.90
2019-01-24T00:27:55.342Z,86.47
2019-01-24T00:30:26.342Z,76.93
2019-01-24T00:32:57.253Z,83.97
2019-01-24T00:35:28.162Z,85.80
2019-01-24T00:37:59.120Z,103.67
2019-01-24T00:40:30.355Z,72.70
2019-01-24T00:43:01.556Z,83.30
2019-01-24T00:45:32.529Z,82.27
2019-01-24T00:48:03.520Z,90.27
2019-01-24T00:50:34.448Z,91.77
2019-01-24T00:53:05.482Z,88.90
2019-01-24T00:55:36.397Z,93.97
2019-01-24T00:58:07.325Z,88.40
2019-01-24T01:00:38.489Z,82.37
2019-01-24T01:03:09.419Z,87.30
2019-01-24T01:05:40.336Z,76.40
2019-01-24T01:08:11.306Z,74.27
2019-01-24T01:10:42.306Z,76.93
2019-01-24T01:13:13.373Z,64.03
2019-01-24T01:15:44.655Z,78.47
2019-01-24T01:18:15.578Z,68.03
2019-01-24T01:20:46.525Z,71.03
2019-01-24T01:23:17.488Z,84.67
2019-01-24T01:25:48.425Z,71.73
2019-01-24T01:28:19.373Z,54.67
2019-01-24T01:30:50.399Z,62.67
2019-01-24T01:33:21.348Z,75.03
2019-01-24T01:35:52.323Z,61.67
2019-01-24T01:38:23.598Z,58.93
2019-01-24T01:40:54.486Z,60.87
2019-01-24T01:43:25.391Z,54.70
2019-01-24T01:45:56.401Z,57.70
2019-01-24T01:48:27.380Z,87.83
2019-01-24T01:50:58.308Z,63.80
2019-01-24T01:53:29.311Z,58.53
2019-01-24T01:56:00.206Z,64.83
2019-01-24T01:58:31.126Z,56.63
2019-01-24T02:01:02.383Z,54.23
2019-01-24T02:03:33.290Z,64.33
2019-01-24T02:06:04.320Z,46.60
2019-01-24T02:08:35.649Z,66.73
2019-01-24T02:11:07.061Z,53.43
2019-01-24T02:13:38.029Z,49.00
2019-01-24T02:16:09.305Z,59.07
2019-01-24T02:18:40.242Z,53.50
2019-01-24T02:21:11.443Z,51.40
2019-01-24T02:23:42.724Z,51.20
2019-01-24T02:26:14.051Z,48.50
2019-01-24T02:28:45.111Z,64.10
2019-01-24T02:31:16.093Z,52.00
2019-01-24T02:33:46.998Z,59.93
2019-01-24T02:36:17.915Z,61.30
2019-01-24T02:38:48.907Z,50.70
2019-01-24T02:41:20.163Z,46.77
2019-01-24T02:43:51.073Z,55.50
2019-01-24T02:46:22.351Z,52.80
2019-01-24T02:48:53.602Z,53.37
2019-01-24T02:51:24.562Z,43.50
2019-01-24T02:53:55.566Z,44.97
2019-01-24T02:56:26.939Z,54.93
2019-01-24T02:58:57.897Z,55.77
2019-01-24T03:01:29.201Z,63.30
2019-01-24T03:04:00.727Z,58.10
2019-01-24T03:06:31.800Z,46.60
2019-01-24T03:09:02.771Z,53.10
2019-01-24T03:11:34.042Z,58.23
2019-01-24T03:14:05.462Z,46.53
2019-01-24T03:16:36.585Z,55.73
2019-01-24T03:19:07.497Z,56.23
2019-01-24T03:21:38.823Z,53.43
2019-01-24T03:24:09.941Z,54.43
2019-01-24T03:26:40.865Z,59.53
2019-01-24T03:29:12.079Z,49.07
2019-01-24T03:31:43.053Z,54.73
2019-01-24T03:34:13.962Z,51.40
2019-01-24T03:36:44.867Z,51.93
2019-01-24T03:39:15.814Z,51.37
2019-01-24T03:41:46.759Z,57.10
2019-01-24T03:44:17.978Z,63.80
2019-01-24T03:46:49.016Z,57.13
2019-01-24T03:49:19.929Z,45.70
2019-01-24T03:51:50.840Z,62.37
2019-01-24T03:54:22.131Z,49.53
2019-01-24T03:56:53.070Z,47.10
2019-01-24T03:59:24.277Z,53.00
2019-01-24T04:01:55.518Z,49.67
2019-01-24T04:04:26.445Z,50.37
2019-01-24T04:06:57.465Z,52.03
2019-01-24T04:09:28.436Z,51.73
2019-01-24T04:11:59.406Z,51.40
2019-01-24T04:14:30.406Z,50.20
2019-01-24T04:17:01.761Z,54.97
2019-01-24T04:19:32.775Z,52.03
2019-01-24T04:22:03.740Z,52.27
2019-01-24T04:24:34.711Z,52.47
2019-01-24T04:27:05.689Z,46.77
2019-01-24T04:29:36.964Z,50.67
2019-01-24T04:32:07.954Z,48.87
2019-01-24T04:34:38.892Z,45.77
2019-01-24T04:37:09.840Z,48.80
2019-01-24T04:39:40.909Z,51.80
2019-01-24T04:42:11.843Z,58.73
2019-01-24T04:44:42.775Z,49.50
2019-01-24T04:47:14.369Z,53.60
2019-01-24T04:49:45.316Z,58.60
2019-01-24T04:52:16.228Z,50.70
2019-01-24T04:54:47.671Z,58.90
2019-01-24T04:57:18.587Z,44.23
2019-01-24T04:59:49.522Z,58.33
2019-01-24T05:02:20.475Z,57.13
2019-01-24T05:04:51.374Z,51.57
2019-01-24T05:07:22.295Z,61.00
2019-01-24T05:09:53.254Z,52.07
2019-01-24T05:12:24.191Z,54.20
2019-01-24T05:14:55.163Z,57.93
2019-01-24T05:17:26.428Z,52.77
2019-01-24T05:19:57.646Z,56.33
2019-01-24T05:22:28.579Z,59.93
2019-01-24T05:24:59.524Z,56.57
2019-01-24T05:27:30.838Z,58.60
2019-01-24T05:30:02.100Z,57.67
2019-01-24T05:32:33.098Z,68.07
2019-01-24T05:35:04.449Z,56.17
2019-01-24T05:37:35.408Z,56.53
2019-01-24T05:40:07.595Z,59.03
2019-01-24T05:42:38.575Z,62.07
2019-01-24T05:45:10.209Z,57.67
2019-01-24T05:47:41.183Z,57.60
2019-01-24T05:50:12.657Z,53.57
2019-01-24T05:52:43.684Z,59.43
2019-01-24T05:55:15.037Z,62.00
2019-01-24T05:57:46.012Z,56.00
2019-01-24T06:00:25.686Z,56.47
2019-01-24T06:02:57.252Z,60.70
2019-01-24T06:05:28.232Z,57.23
2019-01-24T06:07:59.269Z,55.87
2019-01-24T06:10:30.477Z,64.13
2019-01-24T06:13:01.419Z,76.57
2019-01-24T06:15:32.432Z,58.87
2019-01-24T06:18:03.467Z,66.90
2019-01-24T06:20:34.386Z,53.70
2019-01-24T06:23:05.478Z,65.37
2019-01-24T06:25:36.552Z,58.03
2019-01-24T06:28:08.125Z,63.03
2019-01-24T06:30:39.126Z,60.90
2019-01-24T06:33:10.081Z,66.77
2019-01-24T06:35:41.100Z,82.70
2019-01-24T06:38:12.397Z,135.13
2019-01-24T06:40:43.366Z,160.43
2019-01-24T06:43:15.256Z,221.53
2019-01-24T06:45:46.306Z,78.17
2019-01-24T06:48:17.313Z,182.93
2019-01-24T06:50:48.257Z,121.43
2019-01-24T06:53:19.554Z,155.00
2019-01-24T06:55:50.754Z,82.33
2019-01-24T06:58:21.714Z,80.63
2019-01-24T07:00:52.787Z,64.10
2019-01-24T07:03:23.739Z,82.63
2019-01-24T07:05:55.525Z,81.43
2019-01-24T07:08:26.694Z,96.77
2019-01-24T07:10:57.648Z,81.80
2019-01-24T07:13:28.622Z,79.87
2019-01-24T07:15:59.596Z,79.27
2019-01-24T07:18:30.632Z,78.33
2019-01-24T07:21:01.828Z,68.37
2019-01-24T07:23:32.787Z,71.23
2019-01-24T07:26:03.711Z,62.23
2019-01-24T07:28:34.644Z,67.70
2019-01-24T07:31:05.753Z,73.23
2019-01-24T07:33:36.651Z,64.33
2019-01-24T07:36:07.991Z,60.00
2019-01-24T07:38:38.959Z,71.07
2019-01-24T07:41:10.160Z,69.77
2019-01-24T07:43:41.078Z,57.70
2019-01-24T07:46:12.423Z,65.93
2019-01-24T07:48:43.352Z,65.63
2019-01-24T07:51:14.629Z,59.97
2019-01-24T07:53:46.461Z,61.23
2019-01-24T07:56:17.412Z,63.40
2019-01-24T07:58:48.658Z,59.83
2019-01-24T08:01:19.940Z,61.30
2019-01-24T08:03:50.949Z,66.43
2019-01-24T08:06:22.001Z,62.03
2019-01-24T08:08:52.975Z,73.73
2019-01-24T08:11:24.219Z,68.83
2019-01-24T08:13:55.132Z,65.93
2019-01-24T08:16:26.109Z,70.77
2019-01-24T08:18:57.337Z,62.27
2019-01-24T08:21:28.294Z,71.50
2019-01-24T08:23:59.218Z,61.77
2019-01-24T08:26:30.194Z,63.87
2019-01-24T08:29:01.424Z,75.30
2019-01-24T08:31:32.353Z,58.90
2019-01-24T08:34:03.324Z,71.70
2019-01-24T08:36:34.248Z,66.73
2019-01-24T08:39:08.877Z,58.50
2019-01-24T08:41:39.789Z,69.40
2019-01-24T08:44:10.746Z,67.50
2019-01-24T08:46:41.965Z,63.60
2019-01-24T08:49:12.947Z,62.67
2019-01-24T08:51:44.240Z,63.47
2019-01-24T08:54:15.166Z,74.80
2019-01-24T08:56:46.078Z,72.93
2019-01-24T08:59:17.028Z,71.27
2019-01-24T09:01:47.934Z,64.57
2019-01-24T09:04:18.972Z,78.73
2019-01-24T09:06:49.942Z,72.90
2019-01-24T09:09:20.852Z,67.53
2019-01-24T09:11:51.799Z,64.57
2019-01-24T09:14:22.726Z,66.77
2019-01-24T09:16:53.718Z,66.77
2019-01-24T09:19:24.666Z,63.47
2019-01-24T09:21:55.605Z,74.30
2019-01-24T09:24:26.855Z,61.33
2019-01-24T09:26:57.871Z,67.57
2019-01-24T09:29:28.925Z,64.33
2019-01-24T09:32:00.156Z,78.20
2019-01-24T09:34:31.105Z,66.10
2019-01-24T09:37:02.022Z,75.37
2019-01-24T09:39:32.923Z,113.50
2019-01-24T09:42:03.857Z,65.77
2019-01-24T09:44:34.769Z,62.63
2019-01-24T09:47:05.820Z,63.43
2019-01-24T09:49:36.740Z,89.57
2019-01-24T09:52:07.663Z,84.17
2019-01-24T09:54:38.618Z,131.50
2019-01-24T09:57:09.546Z,97.50
2019-01-24T09:59:40.511Z,76.30
2019-01-24T10:02:11.761Z,58.00
2019-01-24T10:04:42.703Z,72.57
2019-01-24T10:07:13.743Z,83.20
2019-01-24T10:09:44.986Z,94.27
2019-01-24T10:12:15.967Z,69.07
2019-01-24T10:14:46.865Z,62.73
2019-01-24T10:17:17.777Z,59.23
2019-01-24T10:19:48.804Z,56.63
2019-01-24T10:22:19.738Z,66.07
2019-01-24T10:24:51.029Z,57.40
2019-01-24T10:27:21.943Z,54.93
2019-01-24T10:29:53.213Z,61.60
2019-01-24T10:32:24.457Z,61.50
2019-01-24T10:34:55.376Z,58.83
2019-01-24T10:37:26.421Z,63.37
2019-01-24T10:39:57.406Z,58.53
2019-01-24T10:42:28.303Z,52.77
2019-01-24T10:44:59.536Z,58.30
2019-01-24T10:47:30.492Z,58.93
2019-01-24T10:50:01.468Z,76.63
2019-01-24T10:52:32.393Z,55.87
2019-01-24T10:55:03.300Z,63.57
2019-01-24T10:57:34.629Z,56.17
2019-01-24T11:00:08.554Z,55.90
2019-01-24T11:02:39.633Z,58.93
2019-01-24T11:05:12.789Z,54.57
2019-01-24T11:07:43.809Z,60.43
2019-01-24T11:10:16.411Z,69.27
2019-01-24T11:12:47.902Z,60.17
2019-01-24T11:15:21.700Z,59.20
2019-01-24T11:17:52.991Z,48.50
2019-01-24T11:20:24.103Z,53.30
2019-01-24T11:22:55.096Z,52.43
2019-01-24T11:25:26.189Z,56.27
2019-01-24T11:27:57.461Z,60.13
2019-01-24T11:30:29.731Z,53.30
2019-01-24T11:33:01.446Z,56.30
2019-01-24T11:35:34.973Z,53.20
2019-01-24T11:38:07.226Z,50.93
2019-01-24T11:40:38.264Z,55.47
2019-01-24T11:43:09.416Z,55.03
2019-01-24T11:45:44.300Z,59.80
2019-01-24T11:48:15.509Z,50.67
2019-01-24T11:50:46.417Z,62.67
2019-01-24T11:53:17.377Z,65.60
2019-01-24T11:55:48.303Z,63.03
2019-01-24T11:58:19.517Z,58.70
2019-01-24T12:00:52.774Z,52.50
2019-01-24T12:03:23.993Z,54.20
2019-01-24T12:05:54.997Z,44.10
2019-01-24T12:08:26.337Z,49.43
2019-01-24T12:10:57.274Z,47.60
2019-01-24T12:13:28.206Z,41.47
2019-01-24T12:15:59.488Z,41.17
2019-01-24T12:18:30.393Z,39.63
2019-01-24T12:21:01.363Z,43.47
2019-01-24T12:23:32.363Z,44.13
2019-01-24T12:26:03.388Z,40.93
2019-01-24T12:28:34.630Z,43.90
2019-01-24T12:31:05.593Z,44.43
2019-01-24T12:33:36.523Z,41.00
2019-01-24T12:36:07.623Z,43.03
2019-01-24T12:38:38.593Z,41.30
2019-01-24T12:41:09.550Z,44.10
2019-01-24T12:43:40.489Z,37.87
2019-01-24T12:46:11.455Z,45.90
2019-01-24T12:48:42.726Z,54.03
2019-01-24T12:51:13.670Z,45.97
2019-01-24T12:53:44.646Z,50.37
2019-01-24T12:56:15.631Z,39.63
2019-01-24T12:58:46.571Z,43.77
2019-01-24T13:01:18.209Z,44.90
2019-01-24T13:03:49.140Z,47.40
2019-01-24T13:06:20.239Z,31.67
2019-01-24T13:08:51.495Z,42.97
2019-01-24T13:11:22.689Z,37.33
2019-01-24T13:13:53.612Z,40.87
2019-01-24T13:16:24.614Z,36.77
2019-01-24T13:18:55.554Z,40.37
2019-01-24T13:21:27.867Z,46.53
2019-01-24T13:23:59.176Z,40.10
2019-01-24T13:26:30.105Z,38.60
2019-01-24T13:29:01.021Z,33.80
2019-01-24T13:31:32.086Z,41.23
2019-01-24T13:34:03.020Z,38.30
2019-01-24T13:36:33.940Z,41.20
2019-01-24T13:39:10.133Z,38.87
2019-01-24T13:41:42.561Z,59.90
2019-01-24T13:44:14.945Z,40.23
2019-01-24T13:46:46.158Z,43.93
2019-01-24T13:49:17.057Z,45.00
2019-01-24T13:51:48.299Z,39.10
2019-01-24T13:54:19.815Z,63.43
2019-01-24T13:56:50.745Z,51.03
2019-01-24T13:59:22.044Z,62.10
2019-01-24T14:01:53.074Z,59.93
2019-01-24T14:04:39.564Z,37.13
2019-01-24T14:07:11.135Z,46.50
2019-01-24T14:09:42.037Z,40.73
2019-01-24T14:12:13.178Z,32.97
2019-01-24T14:14:46.192Z,42.73
2019-01-24T14:17:17.188Z,54.23
2019-01-24T14:19:48.141Z,48.53
2019-01-24T14:22:19.084Z,37.23
2019-01-24T14:24:50.622Z,40.47
2019-01-24T14:27:21.581Z,37.17
2019-01-24T14:29:52.502Z,42.60
2019-01-24T14:32:23.572Z,42.60
2019-01-24T14:34:56.504Z,47.40
2019-01-24T14:37:27.525Z,36.33
2019-01-24T14:39:58.856Z,40.90
2019-01-24T14:42:30.086Z,38.87
2019-01-24T14:45:01.087Z,39.80
2019-01-24T14:47:32.054Z,42.57
2019-01-24T14:50:02.985Z,41.23
2019-01-24T14:52:33.947Z,38.57
2019-01-24T14:55:05.562Z,44.97
2019-01-24T14:57:36.500Z,47.30
2019-01-24T15:00:42.983Z,37.50
2019-01-24T15:03:13.904Z,40.83
2019-01-24T15:05:45.124Z,37.37
2019-01-24T15:08:16.115Z,42.23
2019-01-24T15:10:47.009Z,48.00
2019-01-24T15:13:18.205Z,56.40
2019-01-24T15:15:49.166Z,47.97
2019-01-24T15:18:20.235Z,45.50
2019-01-24T15:20:51.242Z,46.17
2019-01-24T15:23:22.237Z,67.40
2019-01-24T15:25:53.189Z,58.40
2019-01-24T15:28:24.167Z,58.43
2019-01-24T15:30:55.281Z,48.23
2019-01-24T15:33:26.560Z,37.33
2019-01-24T15:35:57.599Z,46.13
2019-01-24T15:38:28.595Z,42.73
2019-01-24T15:40:59.609Z,55.33
2019-01-24T15:43:30.509Z,45.83
2019-01-24T15:46:01.700Z,53.17
2019-01-24T15:48:32.754Z,53.83
2019-01-24T15:51:03.700Z,46.67
2019-01-24T15:53:34.701Z,52.77
2019-01-24T15:56:05.779Z,50.47
2019-01-24T15:58:36.756Z,52.10
2019-01-24T16:01:07.950Z,46.80
2019-01-24T16:03:39.194Z,50.37
2019-01-24T16:06:10.126Z,52.80
2019-01-24T16:08:41.452Z,59.40
2019-01-24T16:11:12.515Z,40.97
2019-01-24T16:13:43.511Z,42.50
2019-01-24T16:16:14.635Z,45.10
2019-01-24T16:18:45.960Z,37.47
2019-01-24T16:21:16.887Z,50.80
2019-01-24T16:23:48.503Z,54.53
2019-01-24T16:26:19.426Z,48.57
2019-01-24T16:28:50.406Z,44.80
2019-01-24T16:31:21.643Z,41.53
2019-01-24T16:33:52.884Z,41.93
2019-01-24T16:36:23.811Z,41.20
2019-01-24T16:38:54.809Z,45.63
2019-01-24T16:41:26.003Z,47.40
2019-01-24T16:43:58.724Z,48.40
2019-01-24T16:46:29.715Z,46.90
2019-01-24T16:49:00.773Z,49.03
2019-01-24T16:51:31.792Z,50.30
2019-01-24T16:54:02.853Z,54.67
2019-01-24T16:56:33.809Z,78.00
2019-01-24T16:59:08.627Z,44.37
2019-01-24T17:01:39.682Z,51.93
2019-01-24T17:04:10.689Z,48.60
2019-01-24T17:06:41.670Z,44.97
2019-01-24T17:09:13.422Z,46.07
2019-01-24T17:11:44.354Z,55.83
2019-01-24T17:14:22.143Z,49.93
2019-01-24T17:16:47.984Z,56.37
2019-01-24T17:19:18.917Z,49.33
2019-01-24T17:21:49.869Z,51.93
2019-01-24T17:24:22.472Z,53.13
2019-01-24T17:26:53.865Z,50.90
2019-01-24T17:29:24.790Z,64.60
2019-01-24T17:31:55.765Z,56.67
2019-01-24T17:34:26.728Z,59.07
2019-01-24T17:36:57.697Z,56.83
2019-01-24T17:39:28.680Z,68.67
2019-01-24T17:41:59.751Z,50.33
2019-01-24T17:44:30.658Z,60.13
2019-01-24T17:47:01.588Z,56.37
2019-01-24T17:49:32.595Z,57.40
2019-01-24T17:52:03.619Z,58.20
2019-01-24T17:54:34.512Z,60.20
2019-01-24T17:57:05.510Z,56.10
2019-01-24T17:59:37.567Z,59.00
2019-01-24T18:02:08.677Z,59.90
2019-01-24T18:04:41.441Z,55.90
2019-01-24T18:07:12.376Z,59.47
2019-01-24T18:09:43.291Z,48.97
2019-01-24T18:12:14.601Z,50.53
2019-01-24T18:14:45.505Z,58.60
2019-01-24T18:17:19.295Z,55.77
2019-01-24T18:19:50.208Z,56.97
2019-01-24T18:22:23.202Z,50.27
2019-01-24T18:24:54.167Z,58.10
2019-01-24T18:27:25.740Z,55.23
2019-01-24T18:29:56.714Z,54.17
2019-01-24T18:32:28.428Z,53.53
2019-01-24T18:34:59.363Z,62.47
2019-01-24T18:37:32.509Z,63.83
2019-01-24T18:40:03.961Z,66.70
2019-01-24T18:42:35.497Z,64.03
2019-01-24T18:45:09.595Z,55.20
2019-01-24T18:47:40.881Z,50.87
2019-01-24T18:50:17.001Z,60.37
2019-01-24T18:52:51.954Z,55.90
2019-01-24T18:55:23.291Z,57.23
2019-01-24T18:58:01.467Z,51.93
2019-01-24T19:00:37.933Z,49.57
2019-01-24T19:03:10.238Z,51.17
2019-01-24T19:05:43.818Z,63.03
2019-01-24T19:08:15.236Z,56.03
2019-01-24T19:10:47.803Z,56.07
2019-01-24T19:13:19.215Z,71.73
2019-01-24T19:15:52.241Z,60.90
2019-01-24T19:18:24.414Z,65.33
2019-01-24T19:20:56.300Z,65.60
2019-01-24T19:23:27.353Z,90.80
2019-01-24T19:25:58.808Z,63.17
2019-01-24T19:28:29.713Z,63.83
2019-01-24T19:31:01.170Z,55.70
2019-01-24T19:33:33.955Z,58.67
2019-01-24T19:36:04.992Z,69.63
2019-01-24T19:38:35.977Z,63.17
2019-01-24T19:41:07.425Z,57.57
2019-01-24T19:43:38.433Z,88.10
2019-01-24T19:46:09.983Z,117.57
2019-01-24T19:48:41.466Z,63.07
2019-01-24T19:51:16.104Z,59.53
2019-01-24T19:53:47.922Z,64.90
2019-01-24T19:56:18.966Z,127.83
2019-01-24T19:58:50.009Z,92.50
2019-01-24T20:01:21.256Z,133.00
2019-01-24T20:03:52.544Z,103.17
2019-01-24T20:06:23.597Z,70.37
2019-01-24T20:09:00.196Z,87.63
2019-01-24T20:11:28.034Z,79.17
2019-01-24T20:13:59.639Z,89.87
2019-01-24T20:16:30.565Z,76.03
2019-01-24T20:19:02.840Z,71.87
2019-01-24T20:21:33.862Z,83.37
2019-01-24T20:24:06.355Z,107.73
2019-01-24T20:26:37.384Z,61.23
2019-01-24T20:29:10.414Z,66.60
2019-01-24T20:31:41.433Z,54.50
2019-01-24T20:34:13.729Z,83.13
2019-01-24T20:36:44.891Z,57.90
2019-01-24T20:39:15.834Z,65.27
2019-01-24T20:41:46.782Z,72.53
2019-01-24T20:44:18.122Z,63.37
2019-01-24T20:46:49.446Z,60.23
2019-01-24T20:49:20.571Z,58.57
2019-01-24T20:51:52.386Z,62.07
2019-01-24T20:54:23.952Z,65.70
2019-01-24T20:56:55.093Z,69.90
2019-01-24T20:59:26.654Z,64.50
2019-01-24T21:01:57.722Z,66.00
2019-01-24T21:04:28.689Z,66.53
2019-01-24T21:06:59.978Z,69.40
2019-01-24T21:09:30.993Z,57.30
2019-01-24T21:12:02.554Z,60.17
2019-01-24T21:14:33.553Z,75.40
2019-01-24T21:17:04.904Z,68.30
2019-01-24T21:19:35.991Z,68.83
2019-01-24T21:22:09.640Z,67.40
2019-01-24T21:24:42.541Z,69.20
2019-01-24T21:27:13.592Z,72.57
2019-01-24T21:29:44.807Z,79.20
2019-01-24T21:32:15.752Z,73.30
2019-01-24T21:34:46.754Z,64.70
2019-01-24T21:37:17.684Z,69.87
2019-01-24T21:39:48.668Z,86.27
2019-01-24T21:42:19.575Z,73.27
2019-01-24T21:44:50.496Z,64.17
2019-01-24T21:47:21.505Z,75.00
2019-01-24T21:49:52.444Z,66.80
2019-01-24T21:52:23.476Z,70.03
2019-01-24T21:54:54.407Z,77.30
2019-01-24T21:57:25.354Z,69.10
2019-01-24T21:59:56.310Z,69.27
2019-01-24T22:02:27.369Z,68.30
2019-01-24T22:04:58.324Z,80.03
2019-01-24T22:07:29.544Z,75.83
2019-01-24T22:10:00.457Z,75.57
2019-01-24T22:12:31.711Z,75.43
2019-01-24T22:15:02.679Z,77.33
2019-01-24T22:17:33.703Z,71.00
2019-01-24T22:20:05.781Z,71.87
2019-01-24T22:22:37.054Z,75.93
2019-01-24T22:25:11.976Z,84.27
2019-01-24T22:27:42.894Z,78.40
2019-01-24T22:30:19.249Z,65.67
2019-01-24T22:32:50.158Z,78.60
2019-01-24T22:35:21.073Z,78.40
2019-01-24T22:37:52.105Z,88.67
2019-01-24T22:40:23.357Z,75.73
2019-01-24T22:42:54.316Z,72.17
2019-01-24T22:45:26.190Z,75.03
2019-01-24T22:47:57.137Z,75.20
2019-01-24T22:50:28.308Z,76.20
2019-01-24T22:52:59.243Z,84.37
2019-01-24T22:55:30.562Z,76.60
2019-01-24T22:58:01.551Z,80.17
2019-01-24T23:00:48.837Z,71.37
2019-01-24T23:03:27.162Z,76.00
2019-01-24T23:05:58.227Z,84.67
2019-01-24T23:08:29.231Z,75.77
2019-01-24T23:11:00.268Z,75.00
2019-01-24T23:13:31.198Z,73.90
2019-01-24T23:16:02.423Z,84.57
2019-01-24T23:18:33.358Z,79.53
2019-01-24T23:21:04.889Z,70.30
2019-01-24T23:23:35.811Z,79.60
2019-01-24T23:26:07.200Z,81.40
2019-01-24T23:28:38.397Z,77.63
2019-01-24T23:31:09.671Z,77.10
2019-01-24T23:33:40.869Z,71.80
2019-01-24T23:36:11.958Z,71.40
2019-01-24T23:38:43.613Z,79.60
2019-01-24T23:41:14.810Z,77.73
2019-01-24T23:43:45.768Z,77.33
2019-01-24T23:46:16.683Z,66.67
2019-01-24T23:48:47.593Z,68.47
2019-01-24T23:51:18.572Z,73.77
2019-01-24T23:53:49.514Z,74.47
2019-01-24T23:56:20.545Z,77.97
2019-01-24T23:58:51.804Z,77.23
